createdAt,value
2019-04-21T00:01:57.853Z,11.07
2019-04-21T00:04:40.718Z,11.30
2019-04-21T00:07:31.897Z,11.30
2019-04-21T00:12:19.667Z,11.13
2019-04-21T00:14:42.393Z,10.63
2019-04-21T00:17:05.869Z,11.43
2019-04-21T00:19:43.022Z,11.10
2019-04-21T00:22:23.700Z,11.30
2019-04-21T00:24:59.769Z,11.03
2019-04-21T00:27:32.026Z,11.27
2019-04-21T00:30:04.626Z,11.20
2019-04-21T00:32:28.088Z,11.53
2019-04-21T00:34:51.009Z,11.50
2019-04-21T00:37:24.175Z,11.30
2019-04-21T00:40:06.322Z,10.27
2019-04-21T00:42:37.411Z,10.63
2019-04-21T00:45:01.938Z,11.40
2019-04-21T00:47:35.826Z,10.57
2019-04-21T00:50:05.081Z,11.30
2019-04-21T00:52:51.001Z,11.13
2019-04-21T00:57:51.710Z,11.17
2019-04-21T01:00:20.235Z,11.10
2019-04-21T01:02:52.534Z,11.47
2019-04-21T01:05:36.101Z,11.57
2019-04-21T01:07:48.244Z,11.50
2019-04-21T01:10:09.371Z,11.87
2019-04-21T01:12:49.264Z,11.83
2019-04-21T01:15:24.641Z,12.03
2019-04-21T01:17:46.028Z,12.40
2019-04-21T01:20:13.273Z,12.40
2019-04-21T01:22:28.218Z,12.10
2019-04-21T01:25:05.605Z,12.33
2019-04-21T01:27:49.408Z,12.07
2019-04-21T01:30:16.519Z,12.77
2019-04-21T01:32:51.246Z,12.43
2019-04-21T01:35:16.439Z,12.27
2019-04-21T01:37:52.423Z,12.43
2019-04-21T01:40:22.906Z,12.83
2019-04-21T01:42:51.161Z,12.63
2019-04-21T01:45:14.703Z,13.00
2019-04-21T01:47:46.325Z,13.03
2019-04-21T01:50:19.843Z,12.53
2019-04-21T01:53:11.344Z,12.83
2019-04-21T01:55:25.242Z,13.83
2019-04-21T01:57:54.002Z,12.27
2019-04-21T02:00:30.522Z,12.70
2019-04-21T02:03:10.735Z,13.23
2019-04-21T02:05:37.548Z,13.00
2019-04-21T02:08:01.086Z,13.63
2019-04-21T02:10:44.419Z,13.33
2019-04-21T02:13:03.448Z,13.83
2019-04-21T02:15:36.044Z,13.67
2019-04-21T02:18:06.091Z,14.77
2019-04-21T02:20:26.944Z,14.87
2019-04-21T02:23:19.089Z,14.40
2019-04-21T02:25:41.019Z,14.00
2019-04-21T02:28:13.453Z,14.27
2019-04-21T02:30:57.995Z,14.50
2019-04-21T02:33:28.008Z,14.80
2019-04-21T02:38:23.773Z,14.77
2019-04-21T02:40:51.356Z,15.00
2019-04-21T02:48:35.295Z,14.90
2019-04-21T02:50:47.252Z,14.93
2019-04-21T02:53:37.409Z,14.50
2019-04-21T02:55:50.846Z,15.73
2019-04-21T03:01:24.371Z,18.80
2019-04-21T03:04:04.844Z,23.50
2019-04-21T03:06:27.133Z,23.63
2019-04-21T03:11:24.173Z,19.53
2019-04-21T03:13:57.291Z,17.90
2019-04-21T03:16:22.566Z,16.00
2019-04-21T03:19:04.929Z,15.00
2019-04-21T03:21:25.913Z,16.43
2019-04-21T03:23:54.061Z,15.27
2019-04-21T03:26:28.327Z,16.17
2019-04-21T03:28:54.420Z,17.03
2019-04-21T03:31:49.452Z,16.27
2019-04-21T03:34:34.744Z,16.30
2019-04-21T03:38:57.213Z,16.20
2019-04-21T03:43:58.946Z,17.00
2019-04-21T03:46:39.275Z,16.93
2019-04-21T03:53:54.003Z,17.87
2019-04-21T03:56:44.345Z,17.50
2019-04-21T03:58:58.498Z,16.47
2019-04-21T04:04:15.594Z,18.23
2019-04-21T04:06:46.952Z,16.73
2019-04-21T04:09:44.495Z,17.87
2019-04-21T04:11:56.687Z,16.63
2019-04-21T04:14:33.504Z,17.60
2019-04-21T04:17:10.143Z,17.93
2019-04-21T04:19:34.401Z,18.67
2019-04-21T04:22:06.028Z,18.03
2019-04-21T04:24:39.611Z,18.77
2019-04-21T04:27:09.748Z,18.90
2019-04-21T04:31:55.387Z,18.47
2019-04-21T04:37:12.634Z,20.03
2019-04-21T04:44:59.669Z,19.57
2019-04-21T04:47:18.343Z,18.43
2019-04-21T04:49:47.960Z,19.47
2019-04-21T04:57:27.467Z,20.07
2019-04-21T04:59:47.623Z,18.77
2019-04-21T05:02:20.663Z,20.47
2019-04-21T05:04:59.276Z,19.30
2019-04-21T05:07:17.416Z,20.13
2019-04-21T05:09:46.927Z,20.37
2019-04-21T05:12:11.960Z,20.63
2019-04-21T05:14:48.239Z,20.93
2019-04-21T05:17:21.517Z,20.13
2019-04-21T05:19:54.018Z,20.93
2019-04-21T05:22:16.855Z,20.43
2019-04-21T05:24:33.274Z,19.93
2019-04-21T05:27:05.032Z,20.33
2019-04-21T05:29:56.783Z,21.50
2019-04-21T05:32:16.997Z,21.10
2019-04-21T05:34:50.339Z,21.67
2019-04-21T05:37:31.696Z,21.40
2019-04-21T05:39:57.478Z,20.80
2019-04-21T05:42:28.445Z,21.73
2019-04-21T05:45:07.682Z,22.90
2019-04-21T05:47:39.761Z,23.90
2019-04-21T05:50:07.598Z,22.13
2019-04-21T05:52:35.371Z,22.10
2019-04-21T05:55:16.723Z,22.33
2019-04-21T05:57:44.231Z,21.63
2019-04-21T06:00:15.632Z,23.73
2019-04-21T06:02:47.164Z,23.43
2019-04-21T06:05:23.184Z,22.17
2019-04-21T06:07:42.720Z,23.10
2019-04-21T06:10:12.418Z,23.53
2019-04-21T06:12:50.307Z,24.17
2019-04-21T06:15:26.570Z,23.90
2019-04-21T06:17:55.045Z,23.27
2019-04-21T06:20:21.221Z,23.67
2019-04-21T06:22:54.236Z,22.90
2019-04-21T06:25:43.143Z,22.73
2019-04-21T06:27:51.016Z,23.67
2019-04-21T06:30:22.090Z,23.30
2019-04-21T06:32:49.119Z,23.83
2019-04-21T06:35:45.550Z,24.10
2019-04-21T06:38:03.787Z,25.33
2019-04-21T06:40:38.976Z,25.23
2019-04-21T06:43:13.017Z,22.87
2019-04-21T06:45:37.776Z,23.70
2019-04-21T06:48:06.297Z,24.83
2019-04-21T06:50:39.535Z,25.57
2019-04-21T06:53:06.827Z,25.97
2019-04-21T06:55:32.068Z,25.40
2019-04-21T06:58:07.908Z,24.53
2019-04-21T07:00:31.826Z,24.27
2019-04-21T07:03:16.012Z,24.87
2019-04-21T07:05:44.101Z,24.20
2019-04-21T07:08:21.692Z,25.23
2019-04-21T07:10:37.151Z,24.13
2019-04-21T07:13:03.671Z,26.63
2019-04-21T07:15:37.403Z,26.33
2019-04-21T07:18:12.912Z,25.00
2019-04-21T07:20:36.628Z,25.23
2019-04-21T07:23:09.444Z,25.00
2019-04-21T07:25:39.083Z,25.37
2019-04-21T07:28:10.829Z,26.50
2019-04-21T07:30:51.857Z,26.63
2019-04-21T07:33:36.027Z,25.40
2019-04-21T07:35:45.682Z,27.13
2019-04-21T07:38:09.638Z,26.30
2019-04-21T07:40:33.390Z,26.27
2019-04-21T07:43:08.646Z,25.90
2019-04-21T07:45:36.728Z,25.77
2019-04-21T07:48:14.324Z,25.83
2019-04-21T07:50:47.383Z,27.00
2019-04-21T07:53:36.470Z,27.00
2019-04-21T07:55:40.218Z,25.80
2019-04-21T07:58:31.831Z,26.73
2019-04-21T08:03:47.809Z,25.83
2019-04-21T08:06:09.873Z,25.97
2019-04-21T08:08:26.514Z,25.00
2019-04-21T08:10:56.969Z,25.70
2019-04-21T08:15:58.183Z,26.63
2019-04-21T08:18:33.505Z,25.83
2019-04-21T08:21:00.780Z,26.17
2019-04-21T08:23:31.831Z,26.67
2019-04-21T08:26:04.716Z,26.10
2019-04-21T08:28:35.428Z,25.40
2019-04-21T08:31:01.401Z,27.63
2019-04-21T08:33:38.389Z,27.40
2019-04-21T08:38:35.884Z,25.67
2019-04-21T08:46:08.147Z,24.87
2019-04-21T08:48:37.917Z,26.77
2019-04-21T08:51:24.489Z,27.07
2019-04-21T08:53:41.135Z,26.63
2019-04-21T08:58:56.068Z,27.90
2019-04-21T09:01:30.691Z,27.37
2019-04-21T09:04:02.761Z,25.00
2019-04-21T09:06:51.250Z,26.63
2019-04-21T09:09:17.892Z,25.33
2019-04-21T09:11:30.725Z,26.53
2019-04-21T09:14:04.748Z,26.40
2019-04-21T09:16:27.839Z,26.47
2019-04-21T09:18:54.390Z,25.87
2019-04-21T09:21:31.408Z,25.23
2019-04-21T09:24:04.542Z,25.07
2019-04-21T09:26:29.401Z,25.47
2019-04-21T09:28:52.231Z,27.57
2019-04-21T09:31:17.952Z,27.37
2019-04-21T09:33:48.780Z,27.97
2019-04-21T09:36:18.048Z,28.00
2019-04-21T09:38:50.722Z,28.13
2019-04-21T09:41:18.944Z,28.23
2019-04-21T09:43:48.956Z,28.70
2019-04-21T09:46:16.126Z,28.33
2019-04-21T09:48:54.912Z,28.03
2019-04-21T09:51:15.556Z,27.90
2019-04-21T09:53:56.164Z,27.03
2019-04-21T09:56:17.964Z,25.23
2019-04-21T09:58:49.739Z,24.50
2019-04-21T10:01:23.958Z,26.90
2019-04-21T10:03:48.680Z,27.17
2019-04-21T10:06:17.506Z,26.30
2019-04-21T10:08:50.371Z,27.67
2019-04-21T10:11:16.493Z,27.90
2019-04-21T10:13:46.242Z,27.67
2019-04-21T10:16:34.180Z,25.70
2019-04-21T10:19:04.524Z,24.07
2019-04-21T10:21:33.918Z,23.47
2019-04-21T10:24:02.577Z,23.33
2019-04-21T10:26:31.147Z,22.93
2019-04-21T10:29:08.171Z,23.67
2019-04-21T10:31:29.937Z,22.87
2019-04-21T10:33:59.090Z,24.40
2019-04-21T10:36:28.962Z,24.00
2019-04-21T10:38:58.984Z,24.17
2019-04-21T10:41:27.826Z,23.47
2019-04-21T10:43:56.431Z,22.83
2019-04-21T10:46:24.994Z,23.47
2019-04-21T10:48:54.827Z,21.23
2019-04-21T10:51:23.540Z,23.97
2019-04-21T10:53:54.290Z,24.10
2019-04-21T10:56:30.647Z,22.03
2019-04-21T10:58:54.171Z,22.80
2019-04-21T11:01:25.172Z,24.07
2019-04-21T11:04:02.585Z,22.73
2019-04-21T11:06:32.494Z,24.07
2019-04-21T11:09:01.983Z,23.57
2019-04-21T11:11:32.124Z,24.10
2019-04-21T11:14:02.233Z,23.37
2019-04-21T11:16:31.077Z,24.53
2019-04-21T11:18:59.999Z,25.87
2019-04-21T11:21:29.164Z,24.30
2019-04-21T11:23:58.470Z,23.43
2019-04-21T11:26:27.620Z,22.53
2019-04-21T11:28:56.800Z,23.87
2019-04-21T11:31:27.234Z,24.10
2019-04-21T11:33:57.426Z,25.63
2019-04-21T11:36:27.128Z,24.37
2019-04-21T11:39:16.351Z,21.80
2019-04-21T11:41:31.875Z,20.90
2019-04-21T11:44:01.453Z,21.03
2019-04-21T11:46:30.774Z,22.20
2019-04-21T11:49:00.093Z,20.77
2019-04-21T11:51:28.990Z,19.83
2019-04-21T11:53:59.047Z,22.43
2019-04-21T11:56:27.878Z,22.17
2019-04-21T11:58:57.821Z,23.53
2019-04-21T12:01:27.657Z,23.93
2019-04-21T12:03:57.830Z,24.80
2019-04-21T12:06:32.234Z,21.87
2019-04-21T12:08:59.831Z,22.13
2019-04-21T12:11:27.424Z,21.70
2019-04-21T12:13:56.330Z,23.23
2019-04-21T12:16:25.202Z,22.93
2019-04-21T12:18:54.672Z,21.67
2019-04-21T12:21:23.432Z,21.73
2019-04-21T12:23:52.401Z,20.67
2019-04-21T12:26:22.042Z,20.83
2019-04-21T12:28:51.933Z,21.37
2019-04-21T12:31:27.634Z,19.23
2019-04-21T12:33:58.143Z,19.07
2019-04-21T12:36:27.571Z,19.53
2019-04-21T12:38:59.668Z,19.03
2019-04-21T12:41:26.740Z,18.67
2019-04-21T12:43:55.393Z,17.83
2019-04-21T12:46:24.041Z,17.03
2019-04-21T12:48:53.728Z,17.47
2019-04-21T12:51:23.847Z,18.13
2019-04-21T12:53:53.926Z,18.63
2019-04-21T12:56:23.421Z,19.47
2019-04-21T12:58:53.286Z,18.90
2019-04-21T13:01:23.070Z,17.53
2019-04-21T13:03:52.111Z,16.37
2019-04-21T13:06:21.411Z,15.77
2019-04-21T13:08:58.915Z,14.37
2019-04-21T13:11:21.399Z,15.00
2019-04-21T13:13:50.610Z,14.30
2019-04-21T13:16:19.609Z,15.07
2019-04-21T13:18:49.221Z,16.37
2019-04-21T13:21:18.158Z,17.47
2019-04-21T13:23:47.246Z,16.73
2019-04-21T13:26:27.069Z,16.73
2019-04-21T13:28:46.065Z,15.83
2019-04-21T13:31:16.055Z,15.87
2019-04-21T13:33:46.061Z,16.60
2019-04-21T13:36:15.761Z,17.37
2019-04-21T13:39:27.520Z,18.07
2019-04-21T13:41:41.846Z,18.63
2019-04-21T13:44:13.293Z,18.77
2019-04-21T13:46:43.076Z,18.27
2019-04-21T13:49:13.691Z,17.70
2019-04-21T13:51:43.847Z,18.63
2019-04-21T13:54:13.889Z,18.70
2019-04-21T13:56:42.677Z,18.77
2019-04-21T13:59:11.371Z,18.83
2019-04-21T14:01:41.311Z,18.03
2019-04-21T14:04:11.529Z,18.70
2019-04-21T14:06:42.386Z,18.97
2019-04-21T14:09:13.712Z,18.30
2019-04-21T14:11:43.580Z,17.93
2019-04-21T14:14:12.521Z,16.53
2019-04-21T14:16:42.282Z,19.37
2019-04-21T14:19:11.043Z,18.20
2019-04-21T14:21:41.322Z,18.03
2019-04-21T14:24:10.883Z,17.07
2019-04-21T14:26:40.460Z,17.67
2019-04-21T14:29:09.874Z,18.00
2019-04-21T14:31:40.202Z,19.63
2019-04-21T14:34:10.074Z,18.90
2019-04-21T14:36:39.023Z,18.33
2019-04-21T14:39:10.566Z,18.00
2019-04-21T14:41:40.315Z,19.30
2019-04-21T14:44:09.257Z,17.47
2019-04-21T14:46:42.802Z,17.80
2019-04-21T14:49:13.149Z,17.30
2019-04-21T14:51:49.548Z,19.10
2019-04-21T14:54:20.644Z,18.00
2019-04-21T14:56:49.382Z,17.20
2019-04-21T14:59:19.240Z,17.93
2019-04-21T15:01:49.469Z,16.13
2019-04-21T15:04:19.371Z,15.70
2019-04-21T15:06:49.552Z,14.83
2019-04-21T15:09:18.899Z,14.90
2019-04-21T15:11:47.765Z,17.50
2019-04-21T15:14:17.759Z,16.23
2019-04-21T15:16:47.077Z,15.90
2019-04-21T15:19:16.881Z,13.90
2019-04-21T15:21:45.684Z,15.60
2019-04-21T15:24:14.319Z,15.67
2019-04-21T15:26:44.194Z,15.50
2019-04-21T15:29:13.015Z,15.30
2019-04-21T15:31:44.610Z,13.63
2019-04-21T15:34:12.983Z,13.10
2019-04-21T15:36:41.975Z,13.87
2019-04-21T15:39:11.892Z,13.20
2019-04-21T15:41:40.839Z,13.20
2019-04-21T15:44:09.869Z,12.67
2019-04-21T15:46:39.906Z,11.70
2019-04-21T15:49:09.215Z,12.90
2019-04-21T15:51:38.051Z,12.50
2019-04-21T15:54:06.934Z,12.50
2019-04-21T15:56:40.784Z,12.00
2019-04-21T15:59:14.717Z,11.87
2019-04-21T16:01:52.417Z,11.83
2019-04-21T16:04:21.033Z,12.60
2019-04-21T16:06:49.887Z,11.93
2019-04-21T16:09:21.665Z,13.10
2019-04-21T16:11:49.717Z,12.20
2019-04-21T16:14:18.727Z,12.93
2019-04-21T16:16:47.470Z,11.77
2019-04-21T16:19:16.428Z,11.47
2019-04-21T16:21:46.517Z,12.23
2019-04-21T16:24:16.415Z,12.23
2019-04-21T16:26:46.736Z,11.50
2019-04-21T16:29:15.549Z,12.10
2019-04-21T16:31:44.068Z,11.53
2019-04-21T16:34:13.740Z,11.30
2019-04-21T16:36:43.532Z,10.87
2019-04-21T16:39:13.198Z,11.50
2019-04-21T16:41:42.583Z,10.97
2019-04-21T16:44:11.284Z,11.67
2019-04-21T16:46:41.254Z,10.93
2019-04-21T16:49:09.933Z,12.73
2019-04-21T16:51:38.505Z,14.43
2019-04-21T16:54:10.091Z,12.20
2019-04-21T16:56:46.183Z,11.47
2019-04-21T16:59:16.723Z,10.70
2019-04-21T17:01:46.776Z,11.03
2019-04-21T17:04:16.016Z,11.67
2019-04-21T17:06:47.135Z,12.03
2019-04-21T17:09:16.796Z,11.80
2019-04-21T17:11:46.957Z,13.43
2019-04-21T17:14:33.065Z,13.43
2019-04-21T17:17:11.386Z,11.63
2019-04-21T17:19:26.968Z,11.73
2019-04-21T17:21:47.824Z,11.00
2019-04-21T17:24:16.778Z,10.53
2019-04-21T17:26:46.480Z,9.80
2019-04-21T17:29:16.860Z,11.27
2019-04-21T17:31:45.709Z,10.67
2019-04-21T17:34:21.193Z,11.17
2019-04-21T17:36:45.380Z,11.13
2019-04-21T17:39:14.123Z,11.23
2019-04-21T17:42:04.065Z,11.30
2019-04-21T17:44:17.163Z,10.67
2019-04-21T17:46:53.826Z,10.93
2019-04-21T17:49:17.166Z,11.23
2019-04-21T17:52:06.397Z,10.90
2019-04-21T17:54:41.865Z,10.80
2019-04-21T17:57:26.758Z,10.63
2019-04-21T18:00:04.058Z,10.97
2019-04-21T18:02:30.056Z,10.53
2019-04-21T18:05:03.744Z,10.73
2019-04-21T18:07:31.178Z,10.20
2019-04-21T18:10:04.503Z,10.97
2019-04-21T18:12:32.198Z,10.67
2019-04-21T18:14:59.238Z,10.80
2019-04-21T18:17:16.356Z,11.23
2019-04-21T18:19:47.460Z,11.17
2019-04-21T18:22:39.591Z,11.13
2019-04-21T18:25:15.360Z,11.17
2019-04-21T18:27:38.775Z,11.80
2019-04-21T18:30:34.028Z,11.90
2019-04-21T18:33:04.681Z,11.43
2019-04-21T18:35:37.534Z,11.63
2019-04-21T18:38:16.801Z,11.63
2019-04-21T18:40:45.216Z,11.13
2019-04-21T18:46:07.038Z,11.30
2019-04-21T18:48:24.580Z,12.20
2019-04-21T18:50:57.037Z,12.47
2019-04-21T18:53:36.449Z,12.90
2019-04-21T18:55:59.432Z,13.00
2019-04-21T18:58:22.461Z,12.97
2019-04-21T19:00:53.045Z,12.13
2019-04-21T19:03:29.193Z,13.93
2019-04-21T19:05:56.666Z,12.90
2019-04-21T19:08:39.256Z,12.27
2019-04-21T19:11:15.011Z,12.40
2019-04-21T19:14:12.706Z,11.90
2019-04-21T19:16:38.918Z,12.17
2019-04-21T19:19:18.525Z,12.23
2019-04-21T19:21:25.808Z,12.33
2019-04-21T19:24:10.507Z,12.87
2019-04-21T19:26:37.752Z,12.83
2019-04-21T19:29:01.252Z,12.00
2019-04-21T19:31:31.857Z,12.60
2019-04-21T19:33:51.599Z,12.60
2019-04-21T19:36:13.237Z,12.30
2019-04-21T19:38:51.730Z,12.93
2019-04-21T19:41:28.140Z,12.30
2019-04-21T19:44:02.569Z,12.67
2019-04-21T19:46:27.847Z,11.43
2019-04-21T19:49:13.753Z,12.47
2019-04-21T19:51:29.029Z,11.80
2019-04-21T19:53:54.018Z,12.30
2019-04-21T19:56:14.367Z,12.50
2019-04-21T19:58:46.055Z,12.13
2019-04-21T20:01:13.772Z,12.47
2019-04-21T20:03:43.147Z,13.40
2019-04-21T20:06:31.537Z,12.50
2019-04-21T20:09:00.726Z,12.23
2019-04-21T20:11:30.800Z,11.49
2019-04-21T20:14:35.746Z,12.13
2019-04-21T20:16:37.407Z,12.33
2019-04-21T20:18:49.545Z,11.50
2019-04-21T20:21:14.439Z,12.63
2019-04-21T20:23:44.694Z,12.00
2019-04-21T20:26:14.064Z,12.77
2019-04-21T20:28:54.731Z,12.30
2019-04-21T20:31:34.370Z,12.13
2019-04-21T20:34:07.823Z,12.30
2019-04-21T20:36:38.026Z,12.50
2019-04-21T20:38:51.534Z,13.27
2019-04-21T20:41:27.018Z,12.47
2019-04-21T20:44:06.211Z,12.27
2019-04-21T20:46:36.584Z,12.57
2019-04-21T20:49:00.077Z,12.80
2019-04-21T20:51:35.887Z,13.13
2019-04-21T20:54:00.519Z,13.30
2019-04-21T20:56:27.687Z,12.87
2019-04-21T20:58:59.993Z,13.87
2019-04-21T21:01:34.872Z,12.47
2019-04-21T21:04:02.281Z,13.27
2019-04-21T21:06:33.685Z,13.27
2019-04-21T21:09:06.156Z,13.40
2019-04-21T21:11:45.115Z,13.47
2019-04-21T21:14:06.990Z,14.27
2019-04-21T21:16:41.437Z,14.77
2019-04-21T21:21:34.115Z,15.53
2019-04-21T21:24:05.382Z,15.50
2019-04-21T21:26:36.789Z,15.43
2019-04-21T21:28:57.450Z,15.67
2019-04-21T21:31:38.712Z,16.00
2019-04-21T21:34:11.922Z,16.77
2019-04-21T21:36:36.758Z,15.80
2019-04-21T21:39:09.552Z,15.63
2019-04-21T21:41:26.422Z,16.83
2019-04-21T21:44:00.526Z,17.60
2019-04-21T21:46:36.778Z,18.37
2019-04-21T21:49:01.742Z,19.27
2019-04-21T21:51:35.854Z,19.17
2019-04-21T21:53:52.721Z,18.40
2019-04-21T21:56:22.678Z,18.17
2019-04-21T21:58:51.941Z,19.37
2019-04-21T22:01:31.997Z,18.63
2019-04-21T22:04:01.692Z,18.53
2019-04-21T22:06:23.939Z,17.53
2019-04-21T22:08:52.453Z,17.50
2019-04-21T22:11:22.131Z,17.83
2019-04-21T22:13:57.618Z,17.93
2019-04-21T22:16:21.838Z,16.97
2019-04-21T22:19:06.884Z,17.37
2019-04-21T22:21:41.538Z,16.87
2019-04-21T22:23:59.423Z,16.30
2019-04-21T22:26:22.969Z,16.40
2019-04-21T22:28:53.793Z,16.10
2019-04-21T22:31:26.870Z,17.33
2019-04-21T22:33:55.721Z,16.07
2019-04-21T22:36:35.435Z,16.27
2019-04-21T22:39:17.653Z,17.20
2019-04-21T22:41:31.010Z,16.73
2019-04-21T22:43:55.235Z,15.57
2019-04-21T22:46:24.421Z,16.67
2019-04-21T22:48:57.277Z,16.53
2019-04-21T22:51:30.525Z,14.93
2019-04-21T22:53:55.561Z,16.50
2019-04-21T22:56:26.862Z,15.63
2019-04-21T22:58:54.997Z,16.77
2019-04-21T23:01:33.391Z,15.87
2019-04-21T23:03:59.239Z,16.27
2019-04-21T23:06:29.049Z,15.93
2019-04-21T23:08:55.421Z,16.37
2019-04-21T23:11:29.287Z,16.47
2019-04-21T23:14:04.077Z,16.83
2019-04-21T23:16:30.101Z,15.93
2019-04-21T23:19:17.055Z,16.83
2019-04-21T23:21:45.799Z,16.83
2019-04-21T23:24:13.444Z,17.90
2019-04-21T23:26:42.030Z,17.60
2019-04-21T23:29:15.657Z,16.77
2019-04-21T23:31:48.299Z,18.60
2019-04-21T23:33:56.380Z,17.97
2019-04-21T23:36:29.671Z,17.73
2019-04-21T23:38:57.120Z,19.00
2019-04-21T23:41:33.579Z,17.43
2019-04-21T23:44:02.962Z,18.43
2019-04-21T23:46:29.844Z,17.80
2019-04-21T23:49:12.617Z,18.67
2019-04-21T23:51:37.738Z,18.20
2019-04-21T23:53:57.518Z,17.83
2019-04-21T23:56:33.284Z,18.13
2019-04-21T23:59:02.638Z,18.93
